sensor_id;sensor_type;location;lat;lon;timestamp;temperature;humidity
46123;DHT22;31856;-35.404;149.120;2023-06-04T02:57:32;14.00;69.60
46123;DHT22;31856;-35.404;149.120;2023-06-04T03:00:03;14.00;69.30
46123;DHT22;31856;-35.404;149.120;2023-06-04T03:02:42;14.00;69.20
46123;DHT22;31856;-35.404;149.120;2023-06-04T03:05:12;14.00;69.30
46123;DHT22;31856;-35.404;149.120;2023-06-04T03:07:42;14.00;69.50
46123;DHT22;31856;-35.404;149.120;2023-06-04T03:10:13;14.00;69.80
46123;DHT22;31856;-35.404;149.120;2023-06-04T03:12:44;14.00;69.80
46123;DHT22;31856;-35.404;149.120;2023-06-04T03:15:13;14.00;69.80
46123;DHT22;31856;-35.404;149.120;2023-06-04T03:17:43;14.00;69.90
46123;DHT22;31856;-35.404;149.120;2023-06-04T03:20:12;14.00;68.90
46123;DHT22;31856;-35.404;149.120;2023-06-04T03:22:42;14.00;69.20
46123;DHT22;31856;-35.404;149.120;2023-06-04T03:25:12;14.00;69.10
46123;DHT22;31856;-35.404;149.120;2023-06-04T03:27:41;14.00;69.20
46123;DHT22;31856;-35.404;149.120;2023-06-04T03:30:11;14.00;69.00
46123;DHT22;31856;-35.404;149.120;2023-06-04T03:32:40;14.00;68.90
46123;DHT22;31856;-35.404;149.120;2023-06-04T03:35:12;14.00;69.20
46123;DHT22;31856;-35.404;149.120;2023-06-04T03:37:42;14.00;69.60
46123;DHT22;31856;-35.404;149.120;2023-06-04T03:40:12;14.00;69.50
46123;DHT22;31856;-35.404;149.120;2023-06-04T03:42:42;14.00;69.10
46123;DHT22;31856;-35.404;149.120;2023-06-04T03:45:11;14.00;69.20
46123;DHT22;31856;-35.404;149.120;2023-06-04T03:47:41;14.00;69.60
46123;DHT22;31856;-35.404;149.120;2023-06-04T03:50:10;14.00;70.10
46123;DHT22;31856;-35.404;149.120;2023-06-04T03:52:40;14.00;70.00
46123;DHT22;31856;-35.404;149.120;2023-06-04T03:55:09;14.00;69.90
46123;DHT22;31856;-35.404;149.120;2023-06-04T03:57:39;13.90;69.30
46123;DHT22;31856;-35.404;149.120;2023-06-04T04:00:10;13.90;69.30
46123;DHT22;31856;-35.404;149.120;2023-06-04T04:02:41;13.90;69.30
46123;DHT22;31856;-35.404;149.120;2023-06-04T04:05:11;13.90;69.30
46123;DHT22;31856;-35.404;149.120;2023-06-04T04:07:43;13.90;69.50
46123;DHT22;31856;-35.404;149.120;2023-06-04T04:10:13;13.90;69.60
46123;DHT22;31856;-35.404;149.120;2023-06-04T04:12:42;14.00;69.40
46123;DHT22;31856;-35.404;149.120;2023-06-04T04:15:12;14.00;69.30
46123;DHT22;31856;-35.404;149.120;2023-06-04T04:17:41;14.00;69.50
46123;DHT22;31856;-35.404;149.120;2023-06-04T04:20:11;13.90;69.80
46123;DHT22;31856;-35.404;149.120;2023-06-04T04:22:41;13.90;69.80
46123;DHT22;31856;-35.404;149.120;2023-06-04T04:25:10;13.90;69.90
46123;DHT22;31856;-35.404;149.120;2023-06-04T04:27:40;13.90;69.90
46123;DHT22;31856;-35.404;149.120;2023-06-04T04:30:10;13.90;69.70
46123;DHT22;31856;-35.404;149.120;2023-06-04T04:32:41;13.80;69.70
46123;DHT22;31856;-35.404;149.120;2023-06-04T04:35:17;13.80;69.90
46123;DHT22;31856;-35.404;149.120;2023-06-04T04:37:47;13.80;70.10
46123;DHT22;31856;-35.404;149.120;2023-06-04T04:40:16;13.80;70.40
46123;DHT22;31856;-35.404;149.120;2023-06-04T04:42:46;13.80;70.70
46123;DHT22;31856;-35.404;149.120;2023-06-04T04:45:16;13.70;70.60
46123;DHT22;31856;-35.404;149.120;2023-06-04T04:47:46;13.60;70.40
46123;DHT22;31856;-35.404;149.120;2023-06-04T04:50:16;13.50;70.30
46123;DHT22;31856;-35.404;149.120;2023-06-04T04:52:45;13.50;70.30
46123;DHT22;31856;-35.404;149.120;2023-06-04T04:55:15;13.50;70.50
46123;DHT22;31856;-35.404;149.120;2023-06-04T04:57:45;13.40;70.50
46123;DHT22;31856;-35.404;149.120;2023-06-04T05:00:15;13.40;70.60
46123;DHT22;31856;-35.404;149.120;2023-06-04T05:02:44;13.30;70.70
46123;DHT22;31856;-35.404;149.120;2023-06-04T05:05:14;13.30;70.80
46123;DHT22;31856;-35.404;149.120;2023-06-04T05:07:44;13.30;71.00
46123;DHT22;31856;-35.404;149.120;2023-06-04T05:10:13;13.30;71.10
46123;DHT22;31856;-35.404;149.120;2023-06-04T05:12:59;13.30;71.00
46123;DHT22;31856;-35.404;149.120;2023-06-04T05:15:29;13.30;71.00
46123;DHT22;31856;-35.404;149.120;2023-06-04T05:17:58;13.30;71.00
46123;DHT22;31856;-35.404;149.120;2023-06-04T05:20:29;13.30;71.20
46123;DHT22;31856;-35.404;149.120;2023-06-04T05:22:59;13.30;70.90
46123;DHT22;31856;-35.404;149.120;2023-06-04T05:25:29;13.30;71.10
46123;DHT22;31856;-35.404;149.120;2023-06-04T05:27:59;13.30;70.90
46123;DHT22;31856;-35.404;149.120;2023-06-04T05:30:29;13.30;70.80
46123;DHT22;31856;-35.404;149.120;2023-06-04T05:33:00;13.20;71.10
46123;DHT22;31856;-35.404;149.120;2023-06-04T05:35:30;13.20;70.80
46123;DHT22;31856;-35.404;149.120;2023-06-04T05:38:01;13.20;70.90
46123;DHT22;31856;-35.404;149.120;2023-06-04T05:40:30;13.20;71.20
46123;DHT22;31856;-35.404;149.120;2023-06-04T05:43:00;13.20;71.50
46123;DHT22;31856;-35.404;149.120;2023-06-04T05:45:29;13.10;70.90
46123;DHT22;31856;-35.404;149.120;2023-06-04T05:47:59;13.00;71.10
46123;DHT22;31856;-35.404;149.120;2023-06-04T05:50:29;13.10;71.00
46123;DHT22;31856;-35.404;149.120;2023-06-04T05:52:59;13.00;71.20
46123;DHT22;31856;-35.404;149.120;2023-06-04T05:55:30;13.00;71.40
46123;DHT22;31856;-35.404;149.120;2023-06-04T05:58:00;13.00;71.10
46123;DHT22;31856;-35.404;149.120;2023-06-04T06:00:29;13.00;71.40
46123;DHT22;31856;-35.404;149.120;2023-06-04T06:03:00;13.00;71.50
46123;DHT22;31856;-35.404;149.120;2023-06-04T06:05:30;12.90;71.70
46123;DHT22;31856;-35.404;149.120;2023-06-04T06:08:00;12.90;71.70
46123;DHT22;31856;-35.404;149.120;2023-06-04T06:10:30;12.90;71.30
46123;DHT22;31856;-35.404;149.120;2023-06-04T06:13:00;12.80;71.70
46123;DHT22;31856;-35.404;149.120;2023-06-04T06:15:29;12.90;71.80
46123;DHT22;31856;-35.404;149.120;2023-06-04T06:17:59;12.80;71.70
46123;DHT22;31856;-35.404;149.120;2023-06-04T06:20:29;12.80;71.90
46123;DHT22;31856;-35.404;149.120;2023-06-04T06:23:05;12.80;72.00
46123;DHT22;31856;-35.404;149.120;2023-06-04T06:25:35;12.80;72.30
46123;DHT22;31856;-35.404;149.120;2023-06-04T06:28:04;12.80;71.80
46123;DHT22;31856;-35.404;149.120;2023-06-04T06:30:34;12.80;72.00
46123;DHT22;31856;-35.404;149.120;2023-06-04T06:33:03;12.80;72.00
46123;DHT22;31856;-35.404;149.120;2023-06-04T06:35:33;12.80;72.20
46123;DHT22;31856;-35.404;149.120;2023-06-04T06:38:02;12.80;71.90
46123;DHT22;31856;-35.404;149.120;2023-06-04T06:40:32;12.80;71.80
46123;DHT22;31856;-35.404;149.120;2023-06-04T06:43:01;12.80;71.80
46123;DHT22;31856;-35.404;149.120;2023-06-04T06:45:31;12.80;71.90
46123;DHT22;31856;-35.404;149.120;2023-06-04T06:48:03;12.70;71.90
46123;DHT22;31856;-35.404;149.120;2023-06-04T06:50:34;12.70;72.10
46123;DHT22;31856;-35.404;149.120;2023-06-04T06:53:04;12.70;71.80
46123;DHT22;31856;-35.404;149.120;2023-06-04T06:55:34;12.70;72.00
46123;DHT22;31856;-35.404;149.120;2023-06-04T06:58:03;12.60;72.40
46123;DHT22;31856;-35.404;149.120;2023-06-04T07:00:33;12.60;72.10
46123;DHT22;31856;-35.404;149.120;2023-06-04T07:03:02;12.60;72.30
46123;DHT22;31856;-35.404;149.120;2023-06-04T07:05:32;12.60;72.50
46123;DHT22;31856;-35.404;149.120;2023-06-04T07:08:02;12.50;72.60
46123;DHT22;31856;-35.404;149.120;2023-06-04T07:10:31;12.50;72.70
46123;DHT22;31856;-35.404;149.120;2023-06-04T07:13:01;12.50;73.00
46123;DHT22;31856;-35.404;149.120;2023-06-04T07:15:30;12.50;73.10
46123;DHT22;31856;-35.404;149.120;2023-06-04T07:18:00;12.50;73.20
46123;DHT22;31856;-35.404;149.120;2023-06-04T07:20:29;12.50;73.10
46123;DHT22;31856;-35.404;149.120;2023-06-04T07:22:59;12.50;72.90
46123;DHT22;31856;-35.404;149.120;2023-06-04T07:25:29;12.50;73.00
46123;DHT22;31856;-35.404;149.120;2023-06-04T07:27:58;12.50;73.30
46123;DHT22;31856;-35.404;149.120;2023-06-04T07:30:28;12.40;73.80
46123;DHT22;31856;-35.404;149.120;2023-06-04T07:32:58;12.40;74.00
46123;DHT22;31856;-35.404;149.120;2023-06-04T07:35:28;12.40;74.00
46123;DHT22;31856;-35.404;149.120;2023-06-04T07:37:57;12.40;73.80
46123;DHT22;31856;-35.404;149.120;2023-06-04T07:40:27;12.40;73.50
46123;DHT22;31856;-35.404;149.120;2023-06-04T07:42:57;12.30;73.80
46123;DHT22;31856;-35.404;149.120;2023-06-04T07:45:26;12.30;74.10
46123;DHT22;31856;-35.404;149.120;2023-06-04T07:48:02;12.30;74.20
46123;DHT22;31856;-35.404;149.120;2023-06-04T07:50:31;12.30;74.20
46123;DHT22;31856;-35.404;149.120;2023-06-04T07:53:04;12.20;73.70
46123;DHT22;31856;-35.404;149.120;2023-06-04T07:55:35;12.20;73.20
46123;DHT22;31856;-35.404;149.120;2023-06-04T07:58:05;12.20;73.20
46123;DHT22;31856;-35.404;149.120;2023-06-04T08:00:35;12.20;73.40
46123;DHT22;31856;-35.404;149.120;2023-06-04T08:03:04;12.30;73.20
46123;DHT22;31856;-35.404;149.120;2023-06-04T09:51:34;11.60;75.20
46123;DHT22;31856;-35.404;149.120;2023-06-04T09:54:05;11.60;75.20
46123;DHT22;31856;-35.404;149.120;2023-06-04T09:56:41;11.70;75.40
46123;DHT22;31856;-35.404;149.120;2023-06-04T09:59:10;11.60;75.70
46123;DHT22;31856;-35.404;149.120;2023-06-04T10:01:42;11.60;75.80
46123;DHT22;31856;-35.404;149.120;2023-06-04T10:04:12;11.60;75.90
46123;DHT22;31856;-35.404;149.120;2023-06-04T10:06:42;11.60;75.80
46123;DHT22;31856;-35.404;149.120;2023-06-04T10:09:12;11.60;75.90
46123;DHT22;31856;-35.404;149.120;2023-06-04T10:11:50;11.60;76.00
46123;DHT22;31856;-35.404;149.120;2023-06-04T10:14:22;11.60;76.20
46123;DHT22;31856;-35.404;149.120;2023-06-04T10:16:52;11.50;76.30
46123;DHT22;31856;-35.404;149.120;2023-06-04T10:19:24;11.50;76.60
46123;DHT22;31856;-35.404;149.120;2023-06-04T10:21:54;11.50;76.50
46123;DHT22;31856;-35.404;149.120;2023-06-04T10:24:25;11.50;76.70
46123;DHT22;31856;-35.404;149.120;2023-06-04T10:26:57;11.50;76.80
46123;DHT22;31856;-35.404;149.120;2023-06-04T10:29:29;11.50;76.80
46123;DHT22;31856;-35.404;149.120;2023-06-04T10:32:00;11.50;77.00
46123;DHT22;31856;-35.404;149.120;2023-06-04T10:34:30;11.50;77.20
46123;DHT22;31856;-35.404;149.120;2023-06-04T10:36:59;11.50;77.10
46123;DHT22;31856;-35.404;149.120;2023-06-04T10:39:29;11.40;77.00
46123;DHT22;31856;-35.404;149.120;2023-06-04T10:42:01;11.40;77.20
46123;DHT22;31856;-35.404;149.120;2023-06-04T10:44:31;11.40;77.20
46123;DHT22;31856;-35.404;149.120;2023-06-04T10:47:01;11.40;76.90
46123;DHT22;31856;-35.404;149.120;2023-06-04T10:49:31;11.50;77.00
46123;DHT22;31856;-35.404;149.120;2023-06-04T14:01:59;11.10;76.40
46123;DHT22;31856;-35.404;149.120;2023-06-04T14:04:30;11.00;76.40
46123;DHT22;31856;-35.404;149.120;2023-06-04T14:06:59;11.10;76.50
46123;DHT22;31856;-35.404;149.120;2023-06-04T14:09:29;11.10;76.20
46123;DHT22;31856;-35.404;149.120;2023-06-04T14:11:58;11.10;76.00
46123;DHT22;31856;-35.404;149.120;2023-06-04T14:14:28;11.10;75.90
46123;DHT22;31856;-35.404;149.120;2023-06-04T14:17:05;11.10;76.00
46123;DHT22;31856;-35.404;149.120;2023-06-04T14:19:34;11.10;76.10
46123;DHT22;31856;-35.404;149.120;2023-06-04T14:22:04;11.10;76.10
46123;DHT22;31856;-35.404;149.120;2023-06-04T14:24:33;11.10;76.50
46123;DHT22;31856;-35.404;149.120;2023-06-04T14:27:03;11.10;76.50
46123;DHT22;31856;-35.404;149.120;2023-06-04T14:29:34;11.10;76.50
46123;DHT22;31856;-35.404;149.120;2023-06-04T14:32:07;11.10;76.40
46123;DHT22;31856;-35.404;149.120;2023-06-04T14:34:36;11.10;76.60
46123;DHT22;31856;-35.404;149.120;2023-06-04T14:37:06;11.10;76.40
46123;DHT22;31856;-35.404;149.120;2023-06-04T14:39:36;11.10;76.30
46123;DHT22;31856;-35.404;149.120;2023-06-04T14:42:05;11.10;76.20
46123;DHT22;31856;-35.404;149.120;2023-06-04T14:44:36;11.00;76.20
46123;DHT22;31856;-35.404;149.120;2023-06-04T14:47:05;11.00;76.40
46123;DHT22;31856;-35.404;149.120;2023-06-04T14:49:35;11.00;76.50
46123;DHT22;31856;-35.404;149.120;2023-06-04T14:52:05;10.90;76.70
46123;DHT22;31856;-35.404;149.120;2023-06-04T14:54:36;10.90;76.80
46123;DHT22;31856;-35.404;149.120;2023-06-04T14:57:05;10.90;76.90
46123;DHT22;31856;-35.404;149.120;2023-06-04T14:59:35;10.90;77.20
46123;DHT22;31856;-35.404;149.120;2023-06-04T15:02:07;10.80;77.50
46123;DHT22;31856;-35.404;149.120;2023-06-04T15:04:37;10.80;77.80
46123;DHT22;31856;-35.404;149.120;2023-06-04T15:07:11;10.80;78.00
46123;DHT22;31856;-35.404;149.120;2023-06-04T15:09:41;10.80;78.30
46123;DHT22;31856;-35.404;149.120;2023-06-04T15:12:10;10.80;78.30
46123;DHT22;31856;-35.404;149.120;2023-06-04T15:14:39;10.80;78.40
46123;DHT22;31856;-35.404;149.120;2023-06-04T15:17:09;10.80;78.50
46123;DHT22;31856;-35.404;149.120;2023-06-04T15:19:39;10.80;78.30
46123;DHT22;31856;-35.404;149.120;2023-06-04T15:22:09;10.80;78.50
46123;DHT22;31856;-35.404;149.120;2023-06-04T15:24:39;10.80;78.30
46123;DHT22;31856;-35.404;149.120;2023-06-04T15:27:09;10.80;78.10
46123;DHT22;31856;-35.404;149.120;2023-06-04T15:29:38;10.80;78.10
46123;DHT22;31856;-35.404;149.120;2023-06-04T15:32:08;10.80;78.30
46123;DHT22;31856;-35.404;149.120;2023-06-04T15:34:38;10.80;78.40
46123;DHT22;31856;-35.404;149.120;2023-06-04T15:37:07;10.80;78.70
46123;DHT22;31856;-35.404;149.120;2023-06-04T15:39:37;10.80;79.00
46123;DHT22;31856;-35.404;149.120;2023-06-04T15:42:07;10.80;79.10
46123;DHT22;31856;-35.404;149.120;2023-06-04T15:44:37;10.70;79.30
46123;DHT22;31856;-35.404;149.120;2023-06-04T15:47:06;10.70;79.40
46123;DHT22;31856;-35.404;149.120;2023-06-04T15:49:35;10.70;79.40
46123;DHT22;31856;-35.404;149.120;2023-06-04T15:52:06;10.60;79.40
46123;DHT22;31856;-35.404;149.120;2023-06-04T15:54:35;10.60;79.60
46123;DHT22;31856;-35.404;149.120;2023-06-04T15:57:13;10.50;79.60
46123;DHT22;31856;-35.404;149.120;2023-06-04T15:59:43;10.50;79.60
46123;DHT22;31856;-35.404;149.120;2023-06-04T16:02:12;10.50;79.70
46123;DHT22;31856;-35.404;149.120;2023-06-04T16:04:42;10.50;79.70
46123;DHT22;31856;-35.404;149.120;2023-06-04T16:07:11;10.50;79.70
46123;DHT22;31856;-35.404;149.120;2023-06-04T16:09:41;10.50;79.70
46123;DHT22;31856;-35.404;149.120;2023-06-04T16:12:10;10.50;79.70
46123;DHT22;31856;-35.404;149.120;2023-06-04T16:14:40;10.50;79.60
46123;DHT22;31856;-35.404;149.120;2023-06-04T16:17:09;10.30;79.70
46123;DHT22;31856;-35.404;149.120;2023-06-04T16:19:39;10.30;79.70
46123;DHT22;31856;-35.404;149.120;2023-06-04T16:22:09;10.30;79.90
46123;DHT22;31856;-35.404;149.120;2023-06-04T16:24:42;10.30;79.90
46123;DHT22;31856;-35.404;149.120;2023-06-04T16:27:12;10.30;80.10
46123;DHT22;31856;-35.404;149.120;2023-06-04T16:29:41;10.30;80.20
46123;DHT22;31856;-35.404;149.120;2023-06-04T16:32:11;10.20;80.10
46123;DHT22;31856;-35.404;149.120;2023-06-04T16:34:41;10.20;80.20
46123;DHT22;31856;-35.404;149.120;2023-06-04T16:37:10;10.20;80.20
46123;DHT22;31856;-35.404;149.120;2023-06-04T16:39:40;10.10;80.00
46123;DHT22;31856;-35.404;149.120;2023-06-04T16:42:09;10.20;80.00
46123;DHT22;31856;-35.404;149.120;2023-06-04T16:44:40;10.10;80.10
46123;DHT22;31856;-35.404;149.120;2023-06-04T16:47:10;10.00;80.50
46123;DHT22;31856;-35.404;149.120;2023-06-04T16:49:39;10.00;80.70
46123;DHT22;31856;-35.404;149.120;2023-06-04T23:02:52;10.60;73.70
46123;DHT22;31856;-35.404;149.120;2023-06-04T23:05:21;10.60;73.70
46123;DHT22;31856;-35.404;149.120;2023-06-04T23:07:51;10.60;73.60
46123;DHT22;31856;-35.404;149.120;2023-06-04T23:10:22;10.60;73.60
46123;DHT22;31856;-35.404;149.120;2023-06-04T23:12:52;10.70;73.50
46123;DHT22;31856;-35.404;149.120;2023-06-04T23:15:22;10.70;73.90
46123;DHT22;31856;-35.404;149.120;2023-06-04T23:17:52;10.70;73.80
46123;DHT22;31856;-35.404;149.120;2023-06-04T23:20:21;10.80;73.80
46123;DHT22;31856;-35.404;149.120;2023-06-04T23:22:52;10.80;73.70
46123;DHT22;31856;-35.404;149.120;2023-06-04T23:25:22;10.80;73.60
46123;DHT22;31856;-35.404;149.120;2023-06-04T23:27:52;10.80;73.30
46123;DHT22;31856;-35.404;149.120;2023-06-04T23:30:21;10.80;73.10
46123;DHT22;31856;-35.404;149.120;2023-06-04T23:32:51;10.90;73.10
46123;DHT22;31856;-35.404;149.120;2023-06-04T23:35:20;10.90;73.40
46123;DHT22;31856;-35.404;149.120;2023-06-04T23:37:51;11.00;73.30
46123;DHT22;31856;-35.404;149.120;2023-06-04T23:40:20;11.00;73.50
46123;DHT22;31856;-35.404;149.120;2023-06-04T23:42:50;11.10;73.50
46123;DHT22;31856;-35.404;149.120;2023-06-04T23:45:20;11.10;73.50
46123;DHT22;31856;-35.404;149.120;2023-06-04T23:47:49;11.20;73.50
46123;DHT22;31856;-35.404;149.120;2023-06-04T23:50:19;11.20;72.70
46123;DHT22;31856;-35.404;149.120;2023-06-04T23:52:48;11.30;72.80
46123;DHT22;31856;-35.404;149.120;2023-06-04T23:55:19;11.30;72.60
46123;DHT22;31856;-35.404;149.120;2023-06-04T23:57:49;11.30;73.00
